Time;durP1;ratioP1;P1;durP2;ratioP2;P2;SDS_P1;SDS_P2;PMS_P1;PMS_P2;Temp;Humidity;BMP_temperature;BMP_pressure;BME280_temperature;BME280_humidity;BME280_pressure;Samples;Min_cycle;Max_cycle;Signal;HPM_P1;HPM_P2
2021/05/30 00:01:59;;;;;;;2.70;2.50;;;8.10;99.90;;;;;;5031563;28;20189;-72
2021/05/30 00:04:25;;;;;;;8.13;2.47;;;8.10;99.90;;;;;;5031467;28;20213;-73
2021/05/30 00:06:51;;;;;;;2.67;2.47;;;8.10;99.90;;;;;;5029245;28;20441;-73
2021/05/30 00:09:17;;;;;;;3.10;2.90;;;8.00;99.90;;;;;;5013613;28;20204;-73
2021/05/30 00:11:43;;;;;;;2.33;2.13;;;8.00;99.90;;;;;;5027404;28;20294;-75
2021/05/30 00:14:08;;;;;;;5.20;2.50;;;7.90;99.90;;;;;;5025111;28;20267;-72
2021/05/30 00:16:34;;;;;;;5.40;3.30;;;7.90;99.90;;;;;;5029648;28;20193;-73
2021/05/30 00:19:01;;;;;;;4.90;3.20;;;7.90;99.90;;;;;;5013582;28;20205;-73
2021/05/30 00:21:27;;;;;;;3.57;3.10;;;7.90;99.90;;;;;;5029216;28;20538;-72
2021/05/30 00:23:53;;;;;;;3.40;3.10;;;7.90;99.90;;;;;;5012639;28;20479;-72
2021/05/30 00:26:19;;;;;;;3.90;3.37;;;7.80;99.90;;;;;;5031005;28;21020;-75
2021/05/30 00:28:44;;;;;;;3.73;3.47;;;7.80;99.90;;;;;;5027155;28;20216;-73
2021/05/30 00:31:10;;;;;;;3.10;2.90;;;7.80;99.90;;;;;;5031021;28;20296;-73
2021/05/30 00:33:35;;;;;;;3.67;3.37;;;7.70;99.90;;;;;;5027092;28;20192;-73
2021/05/30 00:36:02;;;;;;;6.40;3.53;;;7.80;99.90;;;;;;5031747;28;20220;-73
2021/05/30 00:38:27;;;;;;;4.57;3.53;;;7.70;99.90;;;;;;5035564;28;20220;-72
2021/05/30 00:40:53;;;;;;;4.57;3.60;;;7.70;99.90;;;;;;5037806;28;20845;-73
2021/05/30 00:43:19;;;;;;;3.10;2.63;;;7.70;99.90;;;;;;5031055;28;20198;-73
2021/05/30 00:45:46;;;;;;;3.00;2.77;;;7.60;99.90;;;;;;5028867;28;20201;-75
2021/05/30 00:48:12;;;;;;;2.63;2.43;;;7.60;99.90;;;;;;5035503;28;20210;-73
2021/05/30 00:50:37;;;;;;;5.10;3.00;;;7.50;99.90;;;;;;5037444;28;20471;-73
2021/05/30 00:53:05;;;;;;;2.73;2.57;;;7.50;99.90;;;;;;5037460;28;20187;-78
2021/05/30 00:55:31;;;;;;;3.60;3.30;;;7.50;99.90;;;;;;5033526;28;20198;-74
2021/05/30 00:57:57;;;;;;;2.77;2.57;;;7.40;99.90;;;;;;5037621;28;20467;-73
2021/05/30 01:00:23;;;;;;;2.17;2.03;;;7.50;99.90;;;;;;5032937;28;20457;-73
2021/05/30 01:02:48;;;;;;;2.60;2.50;;;7.40;99.90;;;;;;5037498;28;20212;-73
2021/05/30 01:05:14;;;;;;;3.33;2.70;;;7.40;99.90;;;;;;5033982;28;20474;-72
2021/05/30 01:07:41;;;;;;;8.53;2.53;;;7.30;99.90;;;;;;5036959;28;20209;-74
2021/05/30 01:10:28;;;;;;;3.13;2.90;;;7.30;99.90;;;;;;5018075;28;20287;-72
2021/05/30 01:12:54;;;;;;;4.57;2.60;;;7.30;99.90;;;;;;5037471;28;20847;-72
2021/05/30 01:15:20;;;;;;;2.90;2.40;;;7.20;99.90;;;;;;5032886;28;20410;-72
2021/05/30 01:17:47;;;;;;;3.03;2.83;;;7.20;99.90;;;;;;5019807;28;20449;-72
2021/05/30 01:20:16;;;;;;;2.60;2.30;;;7.20;99.90;;;;;;5036085;28;20603;-72
2021/05/30 01:22:42;;;;;;;3.23;2.93;;;7.20;99.90;;;;;;5036745;28;20456;-71
2021/05/30 01:25:14;;;;;;;2.93;2.73;;;7.10;99.90;;;;;;5037234;28;20419;-74
2021/05/30 01:27:40;;;;;;;3.80;2.80;;;7.10;99.90;;;;;;5028841;28;20477;-73
2021/05/30 01:30:08;;;;;;;3.87;2.70;;;7.10;99.90;;;;;;5032984;28;20881;-73
2021/05/30 01:32:34;;;;;;;3.10;2.90;;;7.00;99.90;;;;;;5035040;28;20439;-72
2021/05/30 01:35:00;;;;;;;3.13;2.70;;;7.00;99.90;;;;;;5037262;28;20419;-77
2021/05/30 01:37:25;;;;;;;3.23;2.70;;;7.00;99.90;;;;;;5034070;28;20233;-74
2021/05/30 01:39:51;;;;;;;2.83;2.57;;;7.00;99.90;;;;;;5036271;28;20458;-73
2021/05/30 01:42:17;;;;;;;3.53;3.33;;;7.00;99.90;;;;;;5033385;28;20622;-73
2021/05/30 01:44:42;;;;;;;3.47;3.17;;;7.00;99.90;;;;;;5031457;28;20196;-73
2021/05/30 01:47:08;;;;;;;4.87;2.93;;;7.00;99.90;;;;;;5033394;28;20270;-72
2021/05/30 01:49:33;;;;;;;3.20;2.70;;;7.00;99.90;;;;;;5030497;28;20672;-73
2021/05/30 01:51:59;;;;;;;3.00;2.80;;;7.00;99.90;;;;;;5033859;28;20215;-74
2021/05/30 01:54:27;;;;;;;3.33;3.03;;;7.00;99.90;;;;;;5029558;28;20194;-76
2021/05/30 01:56:56;;;;;;;6.43;3.17;;;7.00;99.90;;;;;;5034079;28;20180;-73
2021/05/30 01:59:27;;;;;;;3.43;3.13;;;7.00;99.90;;;;;;5027220;28;20458;-73
2021/05/30 02:01:59;;;;;;;3.27;2.40;;;7.00;99.90;;;;;;5033896;28;20417;-72
2021/05/30 02:04:34;;;;;;;3.87;3.43;;;7.00;99.90;;;;;;5031388;28;20441;-72
2021/05/30 02:06:59;;;;;;;6.53;2.60;;;7.00;99.90;;;;;;5033690;28;20508;-77
2021/05/30 02:09:26;;;;;;;3.20;2.60;;;7.10;99.90;;;;;;5031584;28;20605;-72
2021/05/30 02:11:52;;;;;;;5.97;3.10;;;7.10;99.90;;;;;;5031491;28;20216;-73
2021/05/30 02:14:19;;;;;;;3.87;3.47;;;7.10;99.90;;;;;;5028548;28;20974;-73
2021/05/30 02:16:45;;;;;;;5.60;3.33;;;7.10;99.90;;;;;;5033123;28;20429;-73
2021/05/30 02:19:12;;;;;;;5.17;3.07;;;7.00;99.90;;;;;;5033493;28;20788;-73
2021/05/30 02:21:46;;;;;;;2.33;2.20;;;7.00;99.90;;;;;;5029270;28;20474;-73
2021/05/30 02:24:13;;;;;;;4.73;3.63;;;6.90;99.90;;;;;;5033301;28;20861;-72
2021/05/30 02:26:39;;;;;;;3.33;3.07;;;6.90;99.90;;;;;;5015022;28;20448;-73
2021/05/30 02:29:05;;;;;;;3.70;3.40;;;6.90;99.90;;;;;;5031025;28;20463;-75
2021/05/30 02:31:31;;;;;;;3.33;3.03;;;6.90;99.90;;;;;;5029201;28;20896;-73
2021/05/30 02:33:57;;;;;;;3.27;2.80;;;6.90;99.90;;;;;;5033168;28;20415;-75
2021/05/30 02:36:23;;;;;;;4.30;3.07;;;6.90;99.90;;;;;;5030009;28;20214;-73
2021/05/30 02:38:49;;;;;;;3.93;3.53;;;6.80;99.90;;;;;;5033281;28;20195;-71
2021/05/30 02:41:14;;;;;;;2.77;2.57;;;6.80;99.90;;;;;;5031500;28;20856;-72
2021/05/30 02:43:40;;;;;;;2.60;2.40;;;6.80;99.90;;;;;;5023692;28;20193;-73
2021/05/30 02:46:05;;;;;;;4.10;3.40;;;6.70;99.90;;;;;;5027852;28;20218;-72
2021/05/30 02:48:31;;;;;;;2.60;2.50;;;6.70;99.90;;;;;;5030814;28;20577;-73
2021/05/30 02:50:59;;;;;;;3.10;2.80;;;6.70;99.90;;;;;;5032937;28;20210;-73
2021/05/30 02:53:30;;;;;;;2.67;2.47;;;6.70;99.90;;;;;;5020979;28;20232;-73
2021/05/30 02:55:57;;;;;;;3.23;3.03;;;6.70;99.90;;;;;;5032883;28;20441;-73
2021/05/30 02:58:23;;;;;;;5.07;2.90;;;6.70;99.90;;;;;;5011144;28;20469;-73
2021/05/30 03:00:49;;;;;;;5.83;3.60;;;6.70;99.90;;;;;;5013455;28;20432;-73
2021/05/30 03:03:15;;;;;;;4.40;3.53;;;6.70;99.90;;;;;;5008653;28;20442;-74
2021/05/30 03:05:40;;;;;;;4.67;3.70;;;6.70;99.90;;;;;;5029298;28;20225;-72
2021/05/30 03:08:06;;;;;;;3.90;3.40;;;6.60;99.90;;;;;;5012635;28;20217;-73
2021/05/30 03:10:32;;;;;;;3.30;3.10;;;6.60;99.90;;;;;;5014701;28;20219;-75
2021/05/30 03:12:58;;;;;;;3.07;2.83;;;6.60;99.90;;;;;;5032342;28;20577;-75
2021/05/30 03:15:25;;;;;;;3.43;3.13;;;6.50;99.90;;;;;;5010507;28;20486;-73
2021/05/30 03:17:50;;;;;;;4.50;2.93;;;6.50;99.90;;;;;;5012735;28;20963;-73
2021/05/30 03:20:16;;;;;;;4.43;3.23;;;6.60;99.90;;;;;;5025036;28;20472;-73
2021/05/30 03:22:42;;;;;;;3.40;3.10;;;6.60;99.90;;;;;;5014653;28;20188;-70
2021/05/30 03:25:08;;;;;;;3.20;3.00;;;6.60;99.90;;;;;;5028735;28;20450;-74
2021/05/30 03:27:33;;;;;;;3.40;3.20;;;6.60;99.90;;;;;;5031359;28;20215;-73
2021/05/30 03:29:59;;;;;;;3.70;3.40;;;6.50;99.90;;;;;;5028004;28;20919;-74
2021/05/30 03:32:25;;;;;;;4.10;3.30;;;6.50;99.90;;;;;;5032075;28;20183;-74
2021/05/30 03:34:50;;;;;;;4.37;3.87;;;6.50;99.90;;;;;;5030069;28;20201;-73
2021/05/30 03:37:16;;;;;;;3.50;3.20;;;6.50;99.90;;;;;;5006313;28;20186;-72
2021/05/30 03:39:44;;;;;;;3.47;3.13;;;6.50;99.90;;;;;;5032129;28;20176;-72
2021/05/30 03:42:32;;;;;;;4.60;3.20;;;6.50;99.90;;;;;;5029644;28;20532;-73
2021/05/30 03:44:58;;;;;;;3.07;2.77;;;6.50;99.90;;;;;;5026273;28;20437;-75
2021/05/30 03:47:24;;;;;;;5.90;3.77;;;6.50;99.90;;;;;;5029603;28;20432;-73
2021/05/30 03:49:50;;;;;;;4.30;3.93;;;6.50;99.90;;;;;;5032032;28;20475;-74
2021/05/30 03:52:16;;;;;;;4.67;3.10;;;6.50;99.90;;;;;;5029450;28;20446;-73
2021/05/30 03:54:42;;;;;;;3.93;3.57;;;6.50;99.90;;;;;;5031618;28;20568;-73
2021/05/30 03:57:09;;;;;;;3.87;3.57;;;6.60;99.90;;;;;;5029472;28;20788;-75
2021/05/30 03:59:35;;;;;;;4.17;3.73;;;6.60;99.90;;;;;;5024937;28;20583;-73
2021/05/30 04:02:00;;;;;;;5.17;3.70;;;6.60;99.90;;;;;;5029506;28;20501;-75
2021/05/30 04:04:26;;;;;;;3.83;3.30;;;6.60;99.90;;;;;;5031616;28;20183;-73
2021/05/30 04:06:51;;;;;;;3.57;3.20;;;6.70;99.90;;;;;;5031598;28;20656;-73
2021/05/30 04:09:17;;;;;;;5.27;4.17;;;6.70;99.90;;;;;;5020366;28;20560;-73
2021/05/30 04:11:42;;;;;;;4.30;3.90;;;6.80;99.90;;;;;;5030960;28;20245;-73
2021/05/30 04:14:08;;;;;;;4.60;3.30;;;6.80;99.90;;;;;;5012879;28;20180;-73
2021/05/30 04:16:33;;;;;;;4.43;4.00;;;6.80;99.90;;;;;;5031484;28;20603;-73
2021/05/30 04:18:59;;;;;;;4.10;3.80;;;6.90;99.90;;;;;;5027864;28;20214;-73
2021/05/30 04:21:25;;;;;;;6.63;4.50;;;6.90;99.90;;;;;;5030944;28;20541;-73
2021/05/30 04:23:51;;;;;;;3.93;3.53;;;7.00;99.90;;;;;;5029102;28;20190;-73
2021/05/30 04:26:16;;;;;;;4.23;3.80;;;7.00;99.90;;;;;;5013561;28;20423;-72
2021/05/30 04:28:42;;;;;;;4.67;4.00;;;7.10;99.90;;;;;;5011590;28;20211;-75
2021/05/30 04:31:07;;;;;;;4.60;4.10;;;7.10;99.90;;;;;;5026956;28;20262;-73
2021/05/30 04:33:33;;;;;;;3.53;3.23;;;7.20;99.90;;;;;;5031326;28;20244;-73
2021/05/30 04:35:58;;;;;;;4.43;3.97;;;7.30;99.90;;;;;;5029773;28;20184;-75
2021/05/30 04:38:24;;;;;;;5.80;3.97;;;7.40;99.90;;;;;;5031270;28;20333;-72
2021/05/30 04:40:50;;;;;;;4.40;4.00;;;7.50;99.90;;;;;;5026301;28;20646;-73
2021/05/30 04:43:16;;;;;;;4.90;4.43;;;7.60;99.90;;;;;;5031045;28;20176;-72
2021/05/30 04:45:42;;;;;;;4.37;3.97;;;7.70;99.90;;;;;;5009824;28;20526;-72
2021/05/30 04:48:08;;;;;;;4.97;4.50;;;7.80;99.90;;;;;;5031174;28;20468;-73
2021/05/30 04:50:33;;;;;;;4.87;4.20;;;7.90;99.90;;;;;;5029173;28;20238;-73
2021/05/30 04:52:59;;;;;;;4.77;4.47;;;8.10;99.90;;;;;;5012815;28;20187;-74
2021/05/30 04:55:25;;;;;;;3.60;3.30;;;8.20;99.90;;;;;;5029441;28;20207;-72
2021/05/30 04:57:50;;;;;;;4.00;3.73;;;8.40;99.90;;;;;;5030548;28;20240;-73
2021/05/30 05:00:16;;;;;;;4.60;4.20;;;8.60;99.90;;;;;;5029636;28;20606;-76
2021/05/30 05:02:43;;;;;;;4.00;3.70;;;9.80;99.90;;;;;;5024862;28;20197;-75
2021/05/30 05:05:12;;;;;;;4.03;3.20;;;12.30;99.90;;;;;;5031156;28;20451;-74
2021/05/30 05:07:40;;;;;;;4.03;3.43;;;15.40;99.90;;;;;;5012823;28;20464;-73
2021/05/30 05:10:07;;;;;;;3.90;3.50;;;18.40;99.90;;;;;;5031252;28;20788;-74
2021/05/30 05:12:32;;;;;;;3.53;3.23;;;20.70;99.90;;;;;;5012401;28;20424;-75
2021/05/30 05:14:58;;;;;;;3.60;3.30;;;21.90;99.90;;;;;;5003769;28;20960;-74
2021/05/30 05:17:23;;;;;;;3.60;3.27;;;23.50;99.90;;;;;;5028535;28;20522;-74
2021/05/30 05:19:49;;;;;;;3.43;3.13;;;24.70;99.90;;;;;;5031113;28;20166;-77
2021/05/30 05:22:15;;;;;;;3.20;3.00;;;25.30;99.90;;;;;;5030248;28;20193;-77
2021/05/30 05:24:41;;;;;;;5.90;3.73;;;25.10;99.90;;;;;;5031421;28;20464;-74
2021/05/30 05:27:08;;;;;;;3.53;3.23;;;25.30;99.90;;;;;;5034770;28;20177;-74
2021/05/30 05:29:34;;;;;;;3.57;3.23;;;25.50;99.90;;;;;;5028399;28;20170;-75
2021/05/30 05:32:00;;;;;;;3.40;3.20;;;25.40;99.60;;;;;;5034615;28;20500;-75
2021/05/30 05:34:25;;;;;;;3.57;3.27;;;25.00;99.50;;;;;;5006015;28;21259;-74
2021/05/30 05:36:51;;;;;;;3.40;3.10;;;25.10;98.30;;;;;;5033881;28;20182;-74
2021/05/30 05:39:16;;;;;;;4.60;3.90;;;24.50;98.10;;;;;;5032032;28;20198;-74
2021/05/30 05:41:42;;;;;;;3.33;3.03;;;23.60;98.60;;;;;;5034421;28;20190;-74
2021/05/30 05:44:07;;;;;;;3.60;3.30;;;22.50;99.90;;;;;;5030245;28;20174;-75
2021/05/30 05:46:33;;;;;;;6.00;3.90;;;21.70;99.90;;;;;;5030910;28;20707;-74
2021/05/30 05:48:59;;;;;;;4.20;3.80;;;21.20;99.90;;;;;;5034220;28;20200;-74
2021/05/30 05:51:24;;;;;;;3.57;3.23;;;20.70;99.90;;;;;;5014581;28;20219;-74
2021/05/30 05:53:51;;;;;;;4.03;3.80;;;20.50;99.90;;;;;;4996800;28;20686;-74
2021/05/30 05:56:16;;;;;;;4.20;3.80;;;20.30;99.90;;;;;;5025470;28;20552;-73
2021/05/30 05:58:42;;;;;;;4.83;3.80;;;20.30;99.90;;;;;;5032292;28;20530;-73
2021/05/30 06:01:09;;;;;;;4.10;3.73;;;20.10;99.90;;;;;;5029666;28;20200;-75
2021/05/30 06:03:35;;;;;;;4.57;4.17;;;19.70;99.90;;;;;;5034156;28;20174;-74
2021/05/30 06:06:03;;;;;;;3.57;3.20;;;19.40;99.90;;;;;;5033593;28;21011;-74
2021/05/30 06:08:28;;;;;;;4.83;3.87;;;19.40;99.90;;;;;;5031851;28;20372;-74
2021/05/30 06:10:54;;;;;;;6.60;3.53;;;19.30;99.90;;;;;;5033653;28;20563;-76
2021/05/30 06:13:20;;;;;;;3.60;3.37;;;19.30;99.90;;;;;;5033683;28;20341;-74
2021/05/30 06:15:45;;;;;;;5.40;4.10;;;19.10;99.90;;;;;;5031824;28;20603;-74
2021/05/30 06:18:15;;;;;;;6.37;4.10;;;19.40;99.90;;;;;;5030396;28;20694;-74
2021/05/30 06:20:42;;;;;;;5.33;4.77;;;19.60;99.90;;;;;;5033836;28;20170;-73
2021/05/30 06:23:08;;;;;;;3.67;3.30;;;19.80;99.90;;;;;;5002285;28;20437;-74
2021/05/30 06:25:35;;;;;;;5.30;4.40;;;19.50;99.90;;;;;;4996687;28;20417;-73
2021/05/30 06:28:01;;;;;;;4.77;4.30;;;19.60;99.90;;;;;;5021751;28;20463;-73
2021/05/30 06:30:36;;;;;;;3.83;3.53;;;19.70;99.90;;;;;;5015292;28;20464;-73
2021/05/30 06:33:05;;;;;;;4.07;3.73;;;19.60;99.90;;;;;;5025690;28;20453;-74
2021/05/30 06:35:31;;;;;;;6.93;4.33;;;19.50;99.90;;;;;;5013188;28;20421;-74
2021/05/30 06:37:58;;;;;;;4.10;3.70;;;19.70;99.90;;;;;;5016449;28;20453;-73
2021/05/30 06:40:23;;;;;;;5.13;4.17;;;20.00;99.90;;;;;;5019620;28;20186;-74
2021/05/30 06:42:49;;;;;;;3.93;3.50;;;20.20;99.90;;;;;;5013506;28;20425;-74
2021/05/30 06:45:15;;;;;;;6.57;4.50;;;20.00;99.90;;;;;;5015100;28;20178;-74
2021/05/30 06:47:41;;;;;;;5.00;3.83;;;19.70;99.90;;;;;;5014102;28;20540;-74
2021/05/30 06:50:07;;;;;;;6.93;4.23;;;19.40;99.90;;;;;;5010236;28;20528;-75
2021/05/30 06:52:33;;;;;;;4.13;3.70;;;19.20;99.90;;;;;;5033447;28;20180;-74
2021/05/30 06:54:58;;;;;;;3.37;3.13;;;19.50;99.90;;;;;;5031339;28;20539;-77
2021/05/30 06:57:24;;;;;;;4.80;4.40;;;19.80;99.90;;;;;;5015366;28;20848;-74
2021/05/30 06:59:49;;;;;;;3.43;3.23;;;20.00;99.90;;;;;;5029014;28;20182;-74
2021/05/30 07:02:16;;;;;;;3.70;3.03;;;20.40;99.90;;;;;;5035994;28;20192;-75
2021/05/30 07:04:42;;;;;;;3.60;3.23;;;20.20;99.90;;;;;;5034507;28;20174;-75
2021/05/30 07:07:07;;;;;;;3.87;3.57;;;20.10;99.90;;;;;;5033085;28;20420;-72
2021/05/30 07:09:33;;;;;;;3.30;3.00;;;20.20;99.90;;;;;;5033155;28;20185;-73
2021/05/30 07:11:58;;;;;;;4.17;3.87;;;20.50;99.90;;;;;;5022909;28;20246;-75
2021/05/30 07:14:24;;;;;;;4.23;3.70;;;20.40;99.90;;;;;;5016506;28;20194;-73
2021/05/30 07:16:52;;;;;;;4.10;3.23;;;20.50;99.90;;;;;;5030876;28;20181;-74
2021/05/30 07:19:18;;;;;;;3.60;3.40;;;20.60;99.90;;;;;;5032701;28;20182;-73
2021/05/30 07:21:43;;;;;;;4.10;3.80;;;20.90;99.90;;;;;;5006954;28;20469;-75
2021/05/30 07:24:09;;;;;;;5.00;4.10;;;20.90;99.90;;;;;;5032434;28;20182;-75
2021/05/30 07:26:37;;;;;;;4.27;3.97;;;21.40;99.90;;;;;;5030602;28;20205;-74
2021/05/30 07:29:02;;;;;;;3.40;2.90;;;21.10;99.90;;;;;;5030623;28;20723;-74
2021/05/30 07:31:28;;;;;;;4.43;3.60;;;21.30;99.90;;;;;;5032203;28;20555;-73
2021/05/30 07:33:53;;;;;;;3.47;3.17;;;21.70;99.90;;;;;;5029524;28;20177;-74
2021/05/30 07:36:19;;;;;;;3.60;3.13;;;21.90;99.90;;;;;;5032432;28;20943;-74
2021/05/30 07:38:44;;;;;;;3.50;3.30;;;21.80;99.90;;;;;;5032538;28;20198;-73
2021/05/30 07:41:10;;;;;;;3.70;3.37;;;21.80;99.90;;;;;;5032282;28;20217;-74
2021/05/30 07:43:35;;;;;;;3.30;3.10;;;22.10;99.90;;;;;;5021598;28;20269;-73
2021/05/30 07:46:01;;;;;;;3.03;2.80;;;21.90;99.90;;;;;;5019701;28;20278;-73
2021/05/30 07:48:26;;;;;;;3.47;3.17;;;21.90;99.90;;;;;;5030093;28;20205;-73
2021/05/30 07:50:52;;;;;;;3.47;2.80;;;21.90;99.90;;;;;;5032243;28;20281;-76
2021/05/30 07:53:18;;;;;;;2.43;2.33;;;21.80;98.70;;;;;;5029179;28;20259;-73
2021/05/30 07:55:44;;;;;;;3.27;2.83;;;21.80;98.70;;;;;;5023433;28;20197;-73
2021/05/30 07:58:10;;;;;;;2.73;2.33;;;21.70;98.10;;;;;;5032000;28;20201;-73
2021/05/30 08:00:36;;;;;;;2.87;2.47;;;21.70;98.10;;;;;;5030739;28;20436;-74
2021/05/30 08:03:02;;;;;;;3.23;2.90;;;22.00;99.10;;;;;;5031734;28;20408;-74
2021/05/30 08:05:28;;;;;;;9.37;2.70;;;22.10;99.10;;;;;;5012998;28;20436;-73
2021/05/30 08:07:54;;;;;;;2.97;2.73;;;22.40;98.30;;;;;;5031996;28;20289;-74
2021/05/30 08:10:22;;;;;;;3.43;2.77;;;22.50;98.40;;;;;;5027851;28;20221;-73
2021/05/30 08:12:48;;;;;;;2.90;2.70;;;22.90;98.50;;;;;;5031730;28;20522;-73
2021/05/30 08:15:14;;;;;;;10.93;2.93;;;23.30;99.40;;;;;;5028661;28;20934;-73
2021/05/30 08:17:40;;;;;;;3.93;3.63;;;23.30;98.10;;;;;;5031883;28;20443;-77
2021/05/30 08:20:08;;;;;;;2.90;2.53;;;23.60;97.80;;;;;;5029495;28;20177;-73
2021/05/30 08:22:34;;;;;;;3.30;3.00;;;23.30;97.50;;;;;;5030639;28;20242;-74
2021/05/30 08:25:00;;;;;;;5.13;2.90;;;22.70;97.20;;;;;;5031681;28;20507;-74
2021/05/30 08:27:26;;;;;;;9.53;2.90;;;21.50;96.60;;;;;;5019021;28;20429;-73
2021/05/30 08:29:52;;;;;;;2.37;2.27;;;21.50;97.20;;;;;;5029423;28;20436;-73
2021/05/30 08:32:18;;;;;;;2.70;2.50;;;21.80;96.70;;;;;;5013042;28;20296;-73
2021/05/30 08:34:45;;;;;;;2.57;2.37;;;22.20;96.70;;;;;;5031518;28;20245;-73
2021/05/30 08:37:11;;;;;;;3.87;2.43;;;23.10;95.90;;;;;;5028594;28;20442;-74
2021/05/30 08:39:36;;;;;;;2.80;2.60;;;23.40;94.60;;;;;;5029318;28;20416;-74
2021/05/30 08:42:03;;;;;;;4.23;2.03;;;23.80;96.20;;;;;;5028461;28;20737;-75
2021/05/30 08:44:28;;;;;;;2.40;2.30;;;24.20;92.70;;;;;;5027740;28;20181;-74
2021/05/30 08:46:54;;;;;;;2.07;1.97;;;24.20;91.30;;;;;;5026226;28;20531;-74
2021/05/30 08:49:19;;;;;;;2.20;1.93;;;24.30;91.50;;;;;;5009103;28;20206;-73
2021/05/30 08:51:45;;;;;;;2.47;1.90;;;24.00;91.00;;;;;;5011590;28;20252;-73
2021/05/30 08:54:13;;;;;;;2.73;2.50;;;24.10;91.60;;;;;;5028391;28;20221;-73
2021/05/30 08:56:41;;;;;;;3.87;2.43;;;23.80;90.70;;;;;;5013790;28;20177;-74
2021/05/30 08:59:20;;;;;;;2.43;2.20;;;24.20;92.00;;;;;;5023435;28;20484;-76
2021/05/30 09:01:47;;;;;;;2.30;1.77;;;24.30;90.90;;;;;;5032633;28;20454;-74
2021/05/30 09:04:13;;;;;;;2.87;2.10;;;24.20;90.80;;;;;;5033264;28;20844;-75
2021/05/30 09:06:41;;;;;;;2.70;2.50;;;24.40;91.60;;;;;;5035383;28;20417;-74
2021/05/30 09:09:12;;;;;;;4.23;2.20;;;24.00;91.00;;;;;;5033924;28;20456;-73
2021/05/30 09:11:41;;;;;;;2.13;2.03;;;24.20;91.50;;;;;;5031849;28;20496;-74
2021/05/30 09:14:12;;;;;;;1.97;1.87;;;24.60;91.60;;;;;;5030666;28;20488;-74
2021/05/30 09:16:53;;;;;;;2.67;2.47;;;24.70;88.90;;;;;;5015646;28;20405;-74
2021/05/30 09:19:31;;;;;;;4.20;2.27;;;24.80;89.10;;;;;;5016292;28;20487;-74
2021/05/30 09:22:19;;;;;;;2.00;1.90;;;24.70;87.70;;;;;;5032999;28;20431;-74
2021/05/30 09:25:03;;;;;;;3.33;2.37;;;24.40;85.90;;;;;;5032080;28;20437;-73
2021/05/30 09:27:29;;;;;;;3.23;2.67;;;25.30;89.00;;;;;;4997668;28;20457;-74
2021/05/30 09:30:13;;;;;;;2.73;2.43;;;25.40;87.50;;;;;;5020807;28;20468;-74
2021/05/30 09:33:04;;;;;;;6.47;2.40;;;25.00;87.10;;;;;;5015140;28;20602;-74
2021/05/30 09:35:43;;;;;;;2.27;2.03;;;25.00;85.70;;;;;;5015093;28;20491;-74
2021/05/30 09:38:17;;;;;;;5.43;2.30;;;25.60;83.60;;;;;;5014618;28;20436;-77
2021/05/30 09:40:49;;;;;;;3.00;2.70;;;24.80;85.30;;;;;;5016539;28;20421;-76
2021/05/30 09:43:14;;;;;;;4.90;1.90;;;24.90;87.00;;;;;;5007069;28;20433;-75
2021/05/30 09:45:42;;;;;;;2.13;1.93;;;24.60;85.40;;;;;;5024294;28;20948;-74
2021/05/30 09:48:16;;;;;;;2.83;1.97;;;24.70;82.90;;;;;;5014765;28;20191;-74
2021/05/30 09:50:42;;;;;;;1.77;1.67;;;25.10;84.30;;;;;;4997221;28;20548;-74
2021/05/30 09:53:08;;;;;;;6.20;1.90;;;24.80;79.50;;;;;;5025710;28;20528;-74
2021/05/30 09:55:33;;;;;;;3.90;2.30;;;25.10;82.50;;;;;;5034622;28;20205;-76
2021/05/30 09:58:13;;;;;;;1.80;1.70;;;25.50;83.80;;;;;;5032204;28;20212;-75
2021/05/30 10:00:40;;;;;;;2.20;2.10;;;25.40;82.00;;;;;;5032919;28;20678;-74
2021/05/30 10:03:06;;;;;;;2.00;1.90;;;24.60;80.80;;;;;;5015343;28;20463;-78
2021/05/30 10:05:33;;;;;;;1.77;1.67;;;23.50;79.10;;;;;;5032422;28;20808;-75
2021/05/30 10:07:59;;;;;;;1.77;1.67;;;23.40;80.70;;;;;;5015420;28;20208;-75
2021/05/30 10:10:26;;;;;;;2.27;2.17;;;24.10;85.80;;;;;;5033252;28;20460;-74
2021/05/30 10:12:52;;;;;;;2.83;1.80;;;24.40;78.40;;;;;;5033111;28;20174;-74
2021/05/30 10:15:17;;;;;;;2.60;2.30;;;24.30;77.40;;;;;;5029209;28;20791;-74
2021/05/30 10:17:45;;;;;;;2.13;1.80;;;24.50;78.80;;;;;;5033931;28;20201;-74
2021/05/30 10:20:15;;;;;;;2.17;2.07;;;24.70;80.30;;;;;;5032965;28;20272;-74
2021/05/30 10:22:43;;;;;;;4.63;2.33;;;24.90;79.90;;;;;;5034165;28;20417;-74
2021/05/30 10:25:10;;;;;;;2.40;1.90;;;25.40;80.80;;;;;;5030428;28;20488;-74
2021/05/30 10:27:35;;;;;;;2.40;2.10;;;25.70;79.60;;;;;;5016131;28;20421;-76
2021/05/30 10:30:07;;;;;;;2.20;2.00;;;24.80;79.90;;;;;;5033433;28;20482;-75
2021/05/30 10:32:36;;;;;;;2.37;2.17;;;24.50;81.30;;;;;;5033772;28;20202;-74
2021/05/30 10:35:11;;;;;;;2.33;2.20;;;24.50;80.50;;;;;;5032458;28;20448;-77
2021/05/30 10:37:51;;;;;;;1.77;1.67;;;25.10;79.50;;;;;;5015665;28;20448;-74
2021/05/30 10:40:22;;;;;;;2.10;1.90;;;25.50;79.40;;;;;;5027978;28;20425;-74
2021/05/30 10:43:10;;;;;;;2.43;2.20;;;24.80;77.90;;;;;;5013704;28;20436;-76
2021/05/30 10:45:41;;;;;;;3.53;2.07;;;24.70;81.20;;;;;;5019286;28;20479;-74
2021/05/30 10:48:07;;;;;;;2.30;2.20;;;25.00;80.90;;;;;;5015627;28;20478;-74
2021/05/30 10:50:48;;;;;;;2.57;2.10;;;24.80;77.10;;;;;;5031547;28;20456;-77
2021/05/30 10:53:29;;;;;;;2.57;2.47;;;24.30;74.70;;;;;;5033393;28;20177;-74
2021/05/30 10:56:13;;;;;;;2.10;1.90;;;24.50;77.50;;;;;;5033053;28;20425;-74
2021/05/30 10:58:39;;;;;;;2.60;2.40;;;25.00;78.30;;;;;;5031564;28;20519;-74
2021/05/30 11:01:05;;;;;;;2.60;2.30;;;25.30;78.30;;;;;;5031570;28;20523;-77
2021/05/30 11:03:31;;;;;;;5.20;2.10;;;24.90;79.20;;;;;;5032408;28;20822;-74
2021/05/30 11:05:57;;;;;;;2.40;2.30;;;24.40;78.10;;;;;;5033415;28;20170;-73
2021/05/30 11:08:29;;;;;;;2.20;2.10;;;23.50;79.10;;;;;;5011548;28;20830;-74
2021/05/30 11:11:24;;;;;;;5.00;2.10;;;22.90;79.30;;;;;;5033191;28;20479;-72
2021/05/30 11:13:57;;;;;;;3.30;2.70;;;22.90;80.10;;;;;;5018750;28;20445;-74
2021/05/30 11:16:23;;;;;;;1.60;1.50;;;23.10;78.00;;;;;;5030709;28;20975;-74
2021/05/30 11:19:05;;;;;;;2.80;2.27;;;23.30;74.10;;;;;;5011410;28;20449;-74
2021/05/30 11:21:34;;;;;;;1.50;1.40;;;23.40;74.40;;;;;;5032773;28;20519;-73
2021/05/30 11:24:03;;;;;;;2.40;2.20;;;23.40;75.00;;;;;;5031651;28;20444;-75
2021/05/30 11:26:29;;;;;;;2.57;2.40;;;23.60;75.40;;;;;;5014770;28;20423;-74
2021/05/30 11:28:54;;;;;;;2.40;2.00;;;23.30;74.10;;;;;;5029173;28;20961;-73
2021/05/30 11:31:20;;;;;;;2.83;2.63;;;23.10;77.40;;;;;;5013643;28;20241;-73
2021/05/30 11:33:57;;;;;;;2.63;2.40;;;22.80;79.20;;;;;;5012844;28;20190;-74
2021/05/30 11:36:23;;;;;;;2.20;1.97;;;22.60;81.10;;;;;;5012538;28;20441;-72
2021/05/30 11:38:55;;;;;;;4.50;2.30;;;22.50;78.90;;;;;;5013028;28;20476;-77
2021/05/30 11:41:28;;;;;;;1.90;1.80;;;22.50;81.90;;;;;;5027129;28;20202;-73
2021/05/30 11:44:05;;;;;;;2.33;2.17;;;22.60;77.30;;;;;;5016819;28;20958;-75
2021/05/30 11:46:54;;;;;;;7.90;2.20;;;22.70;76.50;;;;;;5012682;28;20454;-74
2021/05/30 11:49:24;;;;;;;1.97;1.87;;;22.70;80.30;;;;;;5012096;28;21309;-73
2021/05/30 11:52:16;;;;;;;2.23;2.10;;;22.50;78.30;;;;;;5012390;28;20457;-74
2021/05/30 11:54:41;;;;;;;3.00;2.30;;;22.40;79.40;;;;;;5005218;28;20437;-75
2021/05/30 11:57:08;;;;;;;2.03;1.87;;;22.40;79.70;;;;;;5028554;28;20454;-75
2021/05/30 11:59:43;;;;;;;2.50;2.30;;;22.40;77.60;;;;;;5030730;28;20273;-73
2021/05/30 12:02:10;;;;;;;2.03;1.93;;;22.10;79.10;;;;;;5029483;28;20444;-73
2021/05/30 12:04:35;;;;;;;4.57;2.53;;;21.80;81.10;;;;;;5032065;28;20419;-75
2021/05/30 12:07:02;;;;;;;7.20;1.67;;;21.70;82.40;;;;;;5028000;28;20432;-75
2021/05/30 12:09:50;;;;;;;3.53;3.23;;;21.60;83.60;;;;;;5032036;28;20205;-75
2021/05/30 12:12:45;;;;;;;2.50;2.30;;;21.40;82.60;;;;;;5030901;28;21107;-74
2021/05/30 12:15:24;;;;;;;2.20;2.10;;;21.60;81.60;;;;;;5030230;28;20436;-73
2021/05/30 12:18:01;;;;;;;2.50;2.23;;;21.60;79.50;;;;;;5005976;28;20495;-74
2021/05/30 12:20:33;;;;;;;2.07;1.70;;;21.60;77.20;;;;;;5012065;28;20420;-73
2021/05/30 12:23:16;;;;;;;2.20;2.10;;;21.60;77.60;;;;;;5019167;28;20479;-76
2021/05/30 12:25:52;;;;;;;2.10;2.00;;;21.50;79.00;;;;;;5013503;28;20770;-72
2021/05/30 12:28:19;;;;;;;2.03;1.93;;;21.70;82.90;;;;;;5028185;28;20859;-73
2021/05/30 12:30:50;;;;;;;2.70;2.50;;;21.60;77.40;;;;;;5028099;28;20468;-75
2021/05/30 12:33:15;;;;;;;2.43;2.13;;;21.30;78.70;;;;;;5029314;28;20432;-73
2021/05/30 12:35:49;;;;;;;2.97;2.37;;;21.20;80.70;;;;;;5027655;28;20440;-75
2021/05/30 12:38:19;;;;;;;3.40;3.10;;;21.40;79.90;;;;;;5029286;28;20772;-72
2021/05/30 12:40:46;;;;;;;2.00;1.90;;;21.50;79.70;;;;;;5014175;28;20762;-73
2021/05/30 12:43:13;;;;;;;2.63;2.43;;;21.40;80.60;;;;;;5031235;28;20511;-73
2021/05/30 12:46:02;;;;;;;4.10;3.37;;;21.30;81.10;;;;;;5024830;28;20520;-73
2021/05/30 12:48:45;;;;;;;3.00;2.50;;;21.20;84.70;;;;;;5030753;28;20445;-74
2021/05/30 12:51:22;;;;;;;1.83;1.73;;;21.20;87.40;;;;;;5027441;28;20493;-73
2021/05/30 12:53:48;;;;;;;2.60;2.27;;;21.30;84.80;;;;;;5031349;28;20832;-76
2021/05/30 12:56:20;;;;;;;2.30;2.10;;;21.20;83.70;;;;;;5028350;28;20472;-76